createdAt,value
2019-02-16T00:02:15.065Z,6.26
2019-02-16T00:05:19.798Z,6.28
2019-02-16T00:08:24.079Z,6.27
2019-02-16T00:11:28.357Z,6.20
2019-02-16T00:14:32.767Z,6.13
2019-02-16T00:17:37.081Z,6.09
2019-02-16T00:20:41.369Z,6.06
2019-02-16T00:23:45.683Z,6.04
2019-02-16T00:26:50.115Z,6.04
2019-02-16T00:29:54.373Z,6.00
2019-02-16T00:32:58.769Z,5.96
2019-02-16T00:36:03.231Z,5.99
2019-02-16T00:39:07.896Z,5.98
2019-02-16T00:42:15.216Z,5.97
2019-02-16T00:45:19.501Z,5.98
2019-02-16T00:48:23.814Z,6.04
2019-02-16T00:51:28.283Z,6.00
2019-02-16T00:54:34.234Z,5.97
2019-02-16T00:57:39.996Z,5.98
2019-02-16T01:00:44.313Z,5.95
2019-02-16T01:03:48.739Z,5.91
2019-02-16T01:06:53.085Z,5.89
2019-02-16T01:09:57.645Z,5.90
2019-02-16T01:13:01.917Z,5.86
2019-02-16T01:16:06.315Z,5.84
2019-02-16T01:19:10.616Z,5.90
2019-02-16T01:22:16.642Z,5.98
2019-02-16T01:25:20.940Z,6.00
2019-02-16T01:28:25.405Z,5.84
2019-02-16T01:31:29.710Z,5.79
2019-02-16T01:34:34.078Z,5.76
2019-02-16T01:37:41.343Z,5.72
2019-02-16T01:40:45.647Z,5.69
2019-02-16T01:43:50.191Z,5.66
2019-02-16T01:46:55.881Z,5.74
2019-02-16T01:50:00.326Z,5.71
2019-02-16T01:53:04.766Z,5.71
2019-02-16T01:56:11.423Z,5.69
2019-02-16T01:59:15.855Z,5.75
2019-02-16T02:02:22.237Z,5.72
2019-02-16T02:05:26.583Z,5.67
2019-02-16T02:08:30.881Z,5.74
2019-02-16T02:11:37.740Z,5.82
2019-02-16T02:14:42.182Z,5.76
2019-02-16T02:17:46.498Z,5.70
2019-02-16T02:20:50.806Z,5.74
2019-02-16T02:23:55.114Z,5.65
2019-02-16T02:26:59.839Z,5.64
2019-02-16T02:30:04.281Z,5.68
2019-02-16T02:33:09.630Z,5.70
2019-02-16T02:36:13.941Z,5.61
2019-02-16T02:39:18.451Z,5.50
2019-02-16T02:42:26.170Z,5.52
2019-02-16T02:45:30.467Z,5.61
2019-02-16T02:48:34.792Z,5.66
2019-02-16T02:51:39.424Z,5.63
2019-02-16T02:54:45.603Z,5.55
2019-02-16T02:57:49.931Z,5.49
2019-02-16T03:00:54.325Z,5.43
2019-02-16T03:03:58.718Z,5.40
2019-02-16T03:07:03.058Z,5.35
2019-02-16T03:10:07.679Z,5.25
2019-02-16T03:13:11.965Z,5.18
2019-02-16T03:16:16.699Z,5.09
2019-02-16T03:19:21.014Z,5.04
2019-02-16T03:22:26.906Z,4.94
2019-02-16T03:25:31.420Z,4.89
2019-02-16T03:28:55.676Z,4.74
2019-02-16T03:32:17.519Z,4.65
2019-02-16T03:36:15.319Z,4.61
2019-02-16T03:39:35.691Z,4.60
2019-02-16T03:42:42.315Z,4.74
2019-02-16T03:45:46.657Z,4.75
2019-02-16T03:48:51.060Z,4.77
2019-02-16T03:51:55.372Z,4.77
2019-02-16T03:54:59.700Z,4.75
2019-02-16T03:58:06.966Z,4.70
2019-02-16T04:01:13.991Z,4.61
2019-02-16T04:04:18.372Z,4.53
2019-02-16T04:07:25.752Z,4.50
2019-02-16T04:10:33.072Z,4.45
2019-02-16T04:13:37.436Z,4.42
2019-02-16T04:16:41.765Z,4.34
2019-02-16T04:19:46.059Z,4.27
2019-02-16T04:22:52.478Z,4.25
2019-02-16T04:25:56.940Z,4.28
2019-02-16T04:29:01.231Z,4.27
2019-02-16T04:32:05.512Z,4.24
2019-02-16T04:35:09.849Z,4.28
2019-02-16T04:38:16.171Z,4.25
2019-02-16T04:41:20.153Z,4.25
2019-02-16T04:44:24.590Z,4.36
2019-02-16T04:47:28.884Z,4.36
2019-02-16T04:50:33.163Z,4.43
2019-02-16T04:53:37.488Z,4.52
2019-02-16T04:56:41.767Z,4.51
2019-02-16T04:59:46.028Z,4.55
2019-02-16T05:02:50.323Z,4.76
2019-02-16T05:05:54.815Z,4.90
2019-02-16T05:08:59.274Z,5.13
2019-02-16T05:12:05.378Z,5.21
2019-02-16T05:15:09.807Z,5.22
2019-02-16T05:18:15.872Z,5.40
2019-02-16T05:21:20.168Z,5.50
2019-02-16T05:24:24.522Z,5.46
2019-02-16T05:27:31.574Z,5.45
2019-02-16T05:30:35.866Z,5.30
2019-02-16T05:33:41.528Z,5.16
2019-02-16T05:36:45.843Z,5.09
2019-02-16T05:39:51.866Z,5.03
2019-02-16T05:42:56.173Z,5.07
2019-02-16T05:46:00.505Z,5.09
2019-02-16T05:49:07.593Z,5.19
2019-02-16T05:52:11.961Z,5.20
2019-02-16T05:55:16.229Z,5.16
2019-02-16T05:58:23.196Z,5.14
2019-02-16T06:01:27.479Z,5.00
2019-02-16T06:04:31.858Z,5.00
2019-02-16T06:07:36.273Z,5.00
2019-02-16T06:10:40.578Z,4.94
2019-02-16T06:13:44.917Z,4.84
2019-02-16T06:16:49.205Z,4.78
2019-02-16T06:19:53.483Z,4.76
2019-02-16T06:23:04.287Z,4.78
2019-02-16T06:26:06.274Z,4.77
2019-02-16T06:29:10.621Z,4.86
2019-02-16T06:32:14.945Z,4.92
2019-02-16T06:35:50.581Z,4.92
2019-02-16T06:38:55.088Z,4.92
2019-02-16T06:42:01.342Z,4.88
2019-02-16T06:45:07.221Z,4.85
2019-02-16T06:48:11.525Z,4.92
2019-02-16T06:51:16.161Z,4.77
2019-02-16T06:54:20.472Z,4.90
2019-02-16T06:57:28.243Z,5.05
2019-02-16T07:00:32.727Z,5.18
2019-02-16T07:03:37.034Z,5.15
2019-02-16T07:06:41.384Z,5.07
2019-02-16T07:09:45.791Z,5.02
2019-02-16T07:12:52.892Z,5.00
2019-02-16T07:16:25.589Z,4.92
2019-02-16T07:19:33.121Z,4.88
2019-02-16T07:22:37.534Z,4.86
2019-02-16T07:25:42.877Z,4.86
2019-02-16T07:28:47.111Z,4.99
2019-02-16T07:31:53.472Z,5.11
2019-02-16T07:34:57.755Z,5.05
2019-02-16T07:38:02.149Z,5.13
2019-02-16T07:41:06.583Z,5.21
2019-02-16T07:44:45.122Z,5.13
2019-02-16T07:48:08.488Z,5.20
2019-02-16T07:51:31.712Z,5.23
2019-02-16T07:55:00.932Z,5.31
2019-02-16T07:58:11.783Z,5.30
2019-02-16T08:01:35.023Z,5.42
2019-02-16T08:05:01.329Z,5.54
2019-02-16T08:08:20.050Z,5.58
2019-02-16T08:11:41.475Z,5.65
2019-02-16T08:15:23.150Z,5.66
2019-02-16T08:18:39.564Z,5.77
2019-02-16T08:22:09.112Z,5.86
2019-02-16T08:25:39.853Z,5.88
2019-02-16T08:29:02.100Z,6.07
2019-02-16T08:32:31.405Z,6.14
2019-02-16T08:35:54.766Z,6.23
2019-02-16T08:39:19.728Z,6.21
2019-02-16T08:43:01.189Z,6.50
2019-02-16T08:46:23.091Z,6.57
2019-02-16T08:49:46.223Z,6.47
2019-02-16T08:53:18.586Z,6.61
2019-02-16T08:56:41.143Z,6.72
2019-02-16T08:59:57.659Z,6.94
2019-02-16T09:03:22.762Z,7.10
2019-02-16T09:06:57.420Z,7.09
2019-02-16T09:10:11.563Z,7.11
2019-02-16T09:13:40.981Z,7.29
2019-02-16T09:17:03.073Z,7.47
2019-02-16T09:20:17.555Z,7.53
2019-02-16T09:23:44.541Z,7.63
2019-02-16T09:27:06.928Z,7.68
2019-02-16T09:30:34.004Z,7.89
2019-02-16T09:33:46.205Z,8.15
2019-02-16T09:37:06.040Z,8.27
2019-02-16T09:40:35.112Z,8.33
2019-02-16T09:43:51.092Z,8.41
2019-02-16T09:47:17.436Z,8.60
2019-02-16T09:50:30.373Z,8.69
2019-02-16T09:54:08.394Z,8.66
2019-02-16T09:57:26.587Z,8.87
2019-02-16T10:00:48.169Z,8.78
2019-02-16T10:04:11.357Z,8.73
2019-02-16T10:07:46.943Z,8.86
2019-02-16T10:11:13.617Z,8.85
2019-02-16T10:14:38.161Z,8.89
2019-02-16T10:17:54.867Z,8.88
2019-02-16T10:21:21.376Z,9.00
2019-02-16T10:24:37.796Z,9.06
2019-02-16T10:27:56.101Z,9.02
2019-02-16T10:31:19.432Z,9.19
2019-02-16T10:34:42.967Z,9.27
2019-02-16T10:38:24.384Z,9.47
2019-02-16T10:41:46.427Z,9.49
2019-02-16T10:45:06.179Z,9.48
2019-02-16T10:48:32.445Z,9.47
2019-02-16T10:51:53.854Z,9.55
2019-02-16T10:55:22.977Z,9.74
2019-02-16T10:58:55.263Z,9.71
2019-02-16T11:02:17.269Z,9.60
2019-02-16T11:05:43.668Z,9.62
2019-02-16T11:09:02.742Z,9.78
2019-02-16T11:12:26.122Z,9.84
2019-02-16T11:15:45.727Z,9.96
2019-02-16T11:19:04.546Z,9.89
2019-02-16T11:22:17.667Z,10.12
2019-02-16T11:25:39.553Z,10.08
2019-02-16T11:29:05.929Z,10.32
2019-02-16T11:32:38.549Z,10.33
2019-02-16T11:36:08.195Z,10.51
2019-02-16T11:39:44.787Z,10.63
2019-02-16T11:43:11.102Z,10.71
2019-02-16T11:46:40.614Z,10.63
2019-02-16T11:50:16.455Z,10.78
2019-02-16T11:54:03.022Z,10.94
2019-02-16T11:57:32.208Z,10.83
2019-02-16T12:00:58.210Z,10.87
2019-02-16T12:04:19.463Z,11.07
2019-02-16T12:07:43.704Z,11.03
2019-02-16T12:11:10.074Z,11.04
2019-02-16T12:14:32.036Z,11.09
2019-02-16T12:17:53.866Z,11.10
2019-02-16T12:21:17.195Z,11.17
2019-02-16T12:25:02.952Z,11.35
2019-02-16T12:28:11.659Z,11.23
2019-02-16T12:31:53.406Z,11.30
2019-02-16T12:35:19.325Z,11.51
2019-02-16T12:38:41.323Z,11.45
2019-02-16T12:42:03.507Z,11.44
2019-02-16T12:45:23.382Z,11.29
2019-02-16T12:48:52.836Z,11.16
2019-02-16T12:55:43.032Z,11.11
2019-02-16T12:58:54.983Z,10.82
2019-02-16T13:02:17.011Z,10.64
2019-02-16T13:05:32.020Z,10.51
2019-02-16T13:08:52.039Z,10.46
2019-02-16T13:12:14.173Z,10.28
2019-02-16T13:15:52.533Z,10.27
2019-02-16T13:19:06.295Z,10.19
2019-02-16T13:22:28.370Z,10.16
2019-02-16T13:25:54.702Z,10.17
2019-02-16T13:29:14.236Z,10.19
2019-02-16T13:32:52.928Z,10.21
2019-02-16T13:36:18.987Z,10.27
2019-02-16T13:39:33.648Z,10.07
2019-02-16T13:42:53.071Z,10.01
2019-02-16T13:46:34.854Z,9.90
2019-02-16T13:49:44.771Z,9.95
2019-02-16T13:53:06.259Z,10.05
2019-02-16T13:56:37.798Z,10.05
2019-02-16T14:00:06.736Z,10.11
2019-02-16T14:03:38.191Z,10.07
2019-02-16T14:06:50.831Z,10.03
2019-02-16T14:10:17.494Z,10.05
2019-02-16T14:13:31.001Z,9.87
2019-02-16T14:16:44.773Z,9.87
2019-02-16T14:19:49.181Z,9.87
2019-02-16T14:22:53.489Z,9.75
2019-02-16T14:25:57.889Z,9.72
2019-02-16T14:29:02.333Z,9.72
2019-02-16T14:32:06.634Z,9.73
2019-02-16T14:35:12.491Z,9.72
2019-02-16T14:38:37.156Z,9.67
2019-02-16T14:41:41.465Z,9.68
2019-02-16T14:44:45.783Z,9.64
2019-02-16T14:47:50.125Z,9.58
2019-02-16T14:50:54.465Z,9.55
2019-02-16T14:53:58.760Z,9.53
2019-02-16T14:57:03.054Z,9.47
2019-02-16T15:00:08.318Z,9.43
2019-02-16T15:03:12.782Z,9.42
2019-02-16T15:06:17.106Z,9.41
2019-02-16T15:09:21.503Z,9.29
2019-02-16T15:12:25.896Z,9.21
2019-02-16T15:15:30.312Z,9.12
2019-02-16T15:18:35.940Z,9.08
2019-02-16T15:21:40.301Z,9.00
2019-02-16T15:24:44.714Z,8.96
2019-02-16T15:27:49.088Z,8.89
2019-02-16T15:30:53.399Z,8.80
2019-02-16T15:33:57.705Z,8.77
2019-02-16T15:37:02.051Z,8.71
2019-02-16T15:40:06.678Z,8.69
2019-02-16T15:43:11.071Z,8.59
2019-02-16T15:46:15.386Z,8.55
2019-02-16T15:49:19.802Z,8.47
2019-02-16T15:52:24.127Z,8.39
2019-02-16T15:55:29.512Z,8.37
2019-02-16T15:58:33.846Z,8.31
2019-02-16T16:01:38.237Z,8.27
2019-02-16T16:04:42.587Z,8.30
2019-02-16T16:07:56.497Z,8.24
2019-02-16T16:11:08.230Z,8.17
2019-02-16T16:14:28.660Z,8.13
2019-02-16T16:17:57.671Z,8.11
2019-02-16T16:21:23.720Z,8.05
2019-02-16T16:25:02.527Z,8.02
2019-02-16T16:28:24.728Z,8.03
2019-02-16T16:31:50.934Z,8.01
2019-02-16T16:38:19.620Z,8.02
2019-02-16T16:41:36.749Z,8.09
2019-02-16T16:44:58.846Z,8.05
2019-02-16T16:48:13.432Z,8.04
2019-02-16T16:51:33.523Z,8.04
2019-02-16T16:54:54.471Z,8.04
2019-02-16T16:58:16.674Z,8.07
2019-02-16T17:01:38.693Z,8.12
2019-02-16T17:05:05.049Z,8.17
2019-02-16T17:08:17.367Z,8.23
2019-02-16T17:11:43.511Z,8.20
2019-02-16T17:15:12.329Z,8.19
2019-02-16T17:18:29.090Z,8.17
2019-02-16T17:22:07.513Z,8.15
2019-02-16T17:25:30.984Z,8.21
2019-02-16T17:28:50.318Z,8.19
2019-02-16T17:32:26.022Z,8.17
2019-02-16T17:35:39.336Z,8.16
2019-02-16T17:39:01.209Z,8.17
2019-02-16T17:42:30.679Z,8.19
2019-02-16T17:46:01.518Z,8.19
2019-02-16T17:49:17.123Z,8.21
2019-02-16T17:52:39.197Z,8.23
2019-02-16T17:56:02.481Z,8.26
2019-02-16T17:59:24.262Z,8.30
2019-02-16T18:02:53.613Z,8.37
2019-02-16T18:06:15.528Z,8.41
2019-02-16T18:09:37.647Z,8.37
2019-02-16T18:12:58.667Z,8.43
2019-02-16T18:16:19.353Z,8.39
2019-02-16T18:19:42.251Z,8.49
2019-02-16T18:22:55.426Z,8.52
2019-02-16T18:26:10.195Z,8.54
2019-02-16T18:29:26.079Z,8.53
2019-02-16T18:32:50.309Z,8.52
2019-02-16T18:36:03.921Z,8.64
2019-02-16T18:39:38.034Z,8.64
2019-02-16T18:43:01.922Z,8.61
2019-02-16T18:46:25.249Z,8.65
2019-02-16T18:50:06.946Z,8.57
2019-02-16T18:53:31.064Z,8.52
2019-02-16T18:56:54.344Z,8.56
2019-02-16T19:00:08.201Z,8.49
2019-02-16T19:03:31.961Z,8.42
2019-02-16T19:06:55.237Z,8.44
2019-02-16T19:10:33.788Z,8.51
2019-02-16T19:14:06.115Z,8.61
2019-02-16T19:17:29.486Z,8.45
2019-02-16T19:20:58.812Z,8.43
2019-02-16T19:24:21.007Z,8.51
2019-02-16T19:27:42.953Z,8.47
2019-02-16T19:31:26.759Z,8.53
2019-02-16T19:34:52.894Z,8.48
2019-02-16T19:38:28.439Z,8.58
2019-02-16T19:42:07.076Z,8.40
2019-02-16T19:45:42.659Z,8.39
2019-02-16T19:49:06.195Z,8.30
2019-02-16T19:52:29.589Z,8.32
2019-02-16T19:55:56.030Z,8.36
2019-02-16T19:59:26.963Z,8.31
2019-02-16T20:02:49.364Z,8.36
2019-02-16T20:06:25.298Z,8.27
2019-02-16T20:09:48.574Z,8.28
2019-02-16T20:13:13.115Z,8.31
2019-02-16T20:16:35.464Z,8.37
2019-02-16T20:20:04.887Z,8.34
2019-02-16T20:23:39.675Z,8.34
2019-02-16T20:27:03.290Z,8.40
2019-02-16T20:30:25.670Z,8.35
2019-02-16T20:33:39.313Z,8.22
2019-02-16T20:37:04.958Z,8.27
2019-02-16T20:40:24.193Z,8.26
2019-02-16T20:43:41.941Z,8.15
2019-02-16T20:47:14.715Z,8.13
2019-02-16T20:50:41.151Z,8.21
2019-02-16T20:54:04.424Z,8.16
2019-02-16T20:57:47.086Z,8.14
2019-02-16T21:01:05.241Z,8.16
2019-02-16T21:04:20.351Z,8.23
2019-02-16T21:07:52.625Z,8.15
2019-02-16T21:11:18.399Z,8.17
2019-02-16T21:14:32.342Z,8.23
2019-02-16T21:18:00.647Z,8.16
2019-02-16T21:21:22.474Z,8.21
2019-02-16T21:24:57.806Z,8.18
2019-02-16T21:28:11.566Z,8.16
2019-02-16T21:31:37.991Z,8.16
2019-02-16T21:35:00.131Z,8.15
2019-02-16T21:38:22.723Z,8.16
2019-02-16T21:41:44.539Z,8.13
2019-02-16T21:45:03.558Z,8.11
2019-02-16T21:48:32.766Z,8.10
2019-02-16T21:52:02.153Z,8.10
2019-02-16T21:55:31.988Z,8.11
2019-02-16T21:58:54.003Z,8.27
2019-02-16T22:02:16.126Z,8.14
2019-02-16T22:05:42.536Z,8.13
2019-02-16T22:09:03.422Z,8.16
2019-02-16T22:12:17.194Z,8.27
2019-02-16T22:15:21.731Z,8.21
2019-02-16T22:18:26.041Z,8.18
2019-02-16T22:21:33.357Z,8.18
2019-02-16T22:24:37.688Z,8.19
2019-02-16T22:27:42.083Z,8.23
2019-02-16T22:30:47.002Z,8.21
2019-02-16T22:33:51.421Z,8.21
2019-02-16T22:36:55.871Z,8.22
2019-02-16T22:40:00.329Z,8.33
2019-02-16T22:43:04.765Z,8.23
2019-02-16T22:46:09.216Z,8.21
2019-02-16T22:49:14.688Z,8.24
2019-02-16T22:52:19.099Z,8.25
2019-02-16T22:55:25.051Z,8.24
2019-02-16T22:58:29.458Z,8.27
2019-02-16T23:01:34.238Z,8.26
2019-02-16T23:04:38.571Z,8.25
2019-02-16T23:07:42.954Z,8.29
2019-02-16T23:10:47.378Z,8.28
2019-02-16T23:13:51.816Z,8.28
2019-02-16T23:16:56.148Z,8.28
2019-02-16T23:20:00.573Z,8.27
2019-02-16T23:23:05.166Z,8.27
2019-02-16T23:26:12.062Z,8.26
2019-02-16T23:29:16.490Z,8.32
2019-02-16T23:32:22.195Z,8.31
2019-02-16T23:35:26.612Z,8.34
2019-02-16T23:38:30.978Z,8.26
2019-02-16T23:41:35.287Z,8.25
2019-02-16T23:44:39.674Z,8.23
2019-02-16T23:47:43.977Z,8.23
2019-02-16T23:50:48.363Z,8.26
2019-02-16T23:53:52.804Z,8.22
2019-02-16T23:56:57.078Z,8.22
